Y87 weather

Empire Airport
Empire, Michigan, United States

Public forecast

Using degrees Fahrenheit for public forecast. Weather courtesy of forecast.io.

Closest aviation weather report (METAR) to Empire Airport

Closest report is Frankfort Dow Memorial Field, 12.9 nm (23.8 km) SW. Retrieved 2019/10/16 05:36 UTC (4 minutes ago):

KFKS 160536Z AUTO 25005KT 10SM OVC011 11/07 A2959 RMK AO2 T01110074

Closest aviation forecast (TAF) to Empire Airport

Closest forecast is Cherry Capital Airport, 18.2 nm (33.7 km) E. Retrieved 2019-10-16 00:24 UTC (5 hours ago):

TAF KTVC 152322Z 1600/1624 09008KT P6SM -SHRA VCTS SCT025 OVC035CB FM160100 11007KT P6SM -SHRA VCTS OVC022CB FM160200 13007KT P6SM -SHRA OVC016 FM160400 17007KT P6SM VCSH OVC010 FM160900 27006KT P6SM -SHRA OVC011 FM161100 31010KT P6SM -SHRA OVC008 FM161300 33014G27KT P6SM -SHRA OVC011 FM162300 34017G31KT P6SM -SHRA OVC020